Decoded Metar for LFSX (LUXEUIL in FRANCE) (IATA:N/A) | Meteo·Mobile Aviation Weather
aviador You're here:

LFSX Decoded Metar

LUXEUIL in FRANCE
Report Time2018-09-20 14:00:00
UTC Time2018-09-20 14:24:39
Flight Rules vfr VFR
WindVRB at 04 kt
Visibility9999 m
Phenomena:N/A
Clouds:N/A
Expected CloudBase > 6,000 ft AGL from Temp-Dew spread
CeilingNone
Temp29°C (ISA +16)
Dew Point14°C (40% RH)
Heat Index28.6°C
AAT28.8°C
QNH1018 hPa
Density Alt2,756 ft
Elevation896 ft
Report Wrong Elevation
Raw Report
LFSX 201400Z AUTO VRB04KT CAVOK 29/14 Q1018 NOSIG=

Extra information for LFSX:More info

Metar Taf Metar & Taf Last 4 Metars F.Rules Stats Wind Profile Meteogram Temp Stats Airport Information Weather charts Add Link Nearby VenuesMetar ALERT Operation Metar Decoded Social comments